Latest Coastal Weather Observations for Wyndham Airport

IDW60701

Issued at 2:53 am WST Friday 28 July 2017 (issued every 10 minutes, with the page automatically refreshed every 10 minutes)

About coastal observations | Map of coastal stations | Coastal observations for WA | Marine services | Other Formats
Station Details ID: 001006 Name: WYNDHAM AERO Lat: -15.51 Lon: 128.15 Height: 3.8 m
Data from the previous 72 hours. | See also: Recent months at Wyndham Airport
Date/Time
WST
Temp
°C
Wind Pressure Rain since
9am
mm
Weather Cloud Vis
km
Sea
Height
m
Swell
Dir  Spd
kts
Gust
kts
hPa Trend Height
m
Period
s
Dir
28/02:30am 17.7 ESE 4 4 1014.7 - 0.0 - - - - - - -
28/02:00am 18.1 E 4 5 1014.7 - 0.0 - - - - - - -
28/01:30am 18.3 ENE 3 5 1014.8 - 0.0 - - - - - - -
28/01:00am 18.4 E 3 4 1015.0 - 0.0 - - - - - - -
28/12:30am 18.9 E 3 5 1015.3 - 0.0 - - - - - - -
28/12:00am 18.9 CALM 0 0 1015.3 - 0.0 - - - - - - -
 
Date/Time
WST
Temp
°C
Wind Pressure Rain since
9am
mm
Weather Cloud Vis
km
Sea
Height
m
Swell
Dir  Spd
kts
Gust
kts
hPa Trend Height
m
Period
s
Dir
27/11:30pm 20.0 CALM 0 0 1015.3 - 0.0 - - - - - - -
27/11:00pm 20.7 CALM 0 0 1015.2 - 0.0 - - - - - - -
27/10:30pm 20.8 S 3 5 1015.2 - 0.0 - - - - - - -
27/10:00pm 20.3 ENE 2 5 1015.1 - 0.0 - - - - - - -
27/09:30pm 21.3 ENE 4 5 1015.1 - 0.0 - - - - - - -
27/09:00pm 22.0 CALM 0 5 1014.9 - 0.0 - - - - - - -
27/08:30pm 22.2 CALM 0 0 1014.8 - 0.0 - - - - - - -
27/08:00pm 23.4 CALM 0 0 1014.8 - 0.0 - - - - - - -
27/07:30pm 24.7 NNW 1 5 1014.5 - 0.0 - - - - - - -
27/07:00pm 25.1 CALM 0 0 1014.2 - 0.0 - - - - - - -
27/06:30pm 26.9 N 4 5 1013.9 - 0.0 - - - - - - -
27/06:00pm 28.0 N 6 7 1013.6 - 0.0 - - - - - - -
27/05:30pm 28.7 NNW 5 8 1013.3 - 0.0 - - - - - - -
27/05:00pm 31.4 NE 5 7 1012.8 - 0.0 - - - - - - -
27/04:30pm 33.3 E 8 11 1012.5 - 0.0 - - - - - - -
27/04:00pm 34.0 E 8 12 1012.3 - 0.0 - - - - - - -
27/03:30pm 34.3 ESE 8 14 1012.2 - 0.0 - - - - - - -
27/03:00pm 34.3 ENE 8 11 1012.2 - 0.0 - - - - - - -
27/02:30pm 34.2 E 8 14 1012.3 - 0.0 - - - - - - -
27/02:00pm 34.2 ESE 10 15 1012.4 - 0.0 - - - - - - -
27/01:30pm 34.3 E 9 16 1012.6 - 0.0 - - - - - - -
27/01:00pm 34.7 ENE 7 14 1012.8 - 0.0 - - - - - - -
27/12:30pm 33.9 NE 9 15 1013.3 - 0.0 - - - - - - -
27/12:00pm 33.7 ENE 11 16 1014.0 - 0.0 - - - - - - -
27/11:30am 33.3 ENE 11 15 1014.4 - 0.0 - - - - - - -
27/11:00am 32.9 E 11 16 1014.9 - 0.0 - - - - - - -
27/10:30am 32.2 ENE 11 16 1015.4 - 0.0 - - - - - - -
27/10:00am 31.8 E 10 16 1015.7 - 0.0 - - - - - - -
27/09:30am 31.4 E 10 14 1015.8 - 0.0 - - - - - - -
27/09:00am 30.7 E 12 17 1016.0 - 0.0 - - - - - - -
27/08:30am 29.9 E 9 13 1016.1 - 0.0 - - - - - - -
27/08:00am 29.1 ESE 8 11 1016.0 - 0.0 - - - - - - -
27/07:30am 28.1 E 7 9 1015.7 - 0.0 - - - - - - -
27/07:00am 26.3 E 6 7 1015.3 - 0.0 - - - - - - -
27/06:30am 21.3 E 6 7 1015.1 - 0.0 - - - - - - -
27/06:00am 18.4 E 5 5 1014.8 - 0.0 - - - - - - -
27/05:30am 18.1 E 3 5 1014.4 - 0.0 - - - - - - -
27/05:00am 17.8 CALM 0 3 1014.1 - 0.0 - - - - - - -
27/04:30am 17.7 ENE 3 4 1013.8 - 0.0 - - - - - - -
27/04:00am 18.0 ENE 3 5 1013.7 - 0.0 - - - - - - -
27/03:30am 18.8 SSE 1 3 1013.6 - 0.0 - - - - - - -
27/03:00am 17.6 S 2 4 1013.5 - 0.0 - - - - - - -
27/02:30am 17.7 CALM 0 0 1013.5 - 0.0 - - - - - - -
27/02:00am 17.9 SE 1 4 1013.6 - 0.0 - - - - - - -
27/01:30am 18.4 NW 1 6 1013.8 - 0.0 - - - - - - -
27/01:00am 19.1 CALM 0 0 1013.8 - 0.0 - - - - - - -
27/12:30am 19.1 CALM 0 0 1013.9 - 0.0 - - - - - - -
27/12:00am 19.2 CALM 0 0 1014.0 - 0.0 - - - - - - -
 
Date/Time
WST
Temp
°C
Wind Pressure Rain since
9am
mm
Weather Cloud Vis
km
Sea
Height
m
Swell
Dir  Spd
kts
Gust
kts
hPa Trend Height
m
Period
s
Dir
26/11:30pm 19.8 CALM 0 0 1013.8 - 0.0 - - - - - - -
26/11:00pm 20.3 ESE 5 5 1013.9 - 0.0 - - - - - - -
26/10:30pm 22.8 E 6 6 1014.0 - 0.0 - - - - - - -
26/10:00pm 23.1 E 5 6 1014.2 - 0.0 - - - - - - -
26/09:30pm 22.3 E 5 5 1014.2 - 0.0 - - - - - - -
26/09:00pm 24.4 E 6 7 1014.3 - 0.0 - - - - - - -
26/08:30pm 24.2 ESE 5 6 1014.2 - 0.0 - - - - - - -
26/08:00pm 23.5 ENE 5 6 1013.9 - 0.0 - - - - - - -
26/07:30pm 26.6 E 7 8 1013.8 - 0.0 - - - - - - -
26/07:00pm 25.9 E 6 6 1013.3 - 0.0 - - - - - - -
26/06:30pm 26.8 ESE 6 9 1012.9 - 0.0 - - - - - - -
26/06:00pm 28.5 SE 8 9 1012.5 - 0.0 - - - - - - -
26/05:30pm 29.7 E 7 8 1012.1 - 0.0 - - - - - - -
26/05:00pm 32.1 E 8 11 1011.9 - 0.0 - - - - - - -
26/04:30pm 33.3 E 7 11 1011.6 - 0.0 - - - - - - -
26/04:00pm 33.7 E 10 14 1011.4 - 0.0 - - - - - - -
26/03:30pm 34.4 E 9 15 1011.4 - 0.0 - - - - - - -
26/03:00pm 34.7 ENE 10 13 1011.4 - 0.0 - - - - - - -
26/02:30pm 34.3 E 10 16 1011.5 - 0.0 - - - - - - -
26/02:00pm 34.5 E 10 15 1011.7 - 0.0 - - - - - - -
26/01:30pm 34.9 E 11 17 1012.0 - 0.0 - - - - - - -
26/01:00pm 34.5 E 10 13 1012.3 - 0.0 - - - - - - -
26/12:30pm 34.2 E 11 17 1013.0 - 0.0 - - - - - - -
26/12:00pm 33.9 ESE 11 16 1013.5 - 0.0 - - - - - - -
26/11:30am 33.3 ENE 12 17 1013.7 - 0.0 - - - - - - -
26/11:00am 33.3 ENE 13 18 1014.1 - 0.0 - - - - - - -
26/10:30am 33.3 E 12 15 1014.5 - 0.0 - - - - - - -
26/10:00am 33.0 E 11 20 1014.8 - 0.0 - - - - - - -
26/09:30am 32.3 E 11 15 1015.1 - 0.0 - - - - - - -
26/09:00am 30.5 SE 9 11 1015.6 - 0.0 - - - - - - -
26/08:30am 29.6 ESE 9 13 1015.7 - 0.0 - - - - - - -
26/08:00am 28.9 ESE 8 12 1015.6 - 0.0 - - - - - - -
26/07:30am 27.4 SE 6 9 1015.3 - 0.0 - - - - - - -
26/07:00am 24.8 SSE 4 5 1015.2 - 0.0 - - - - - - -
26/06:30am 22.9 E 3 4 1014.8 - 0.0 - - - - - - -
26/06:00am 22.2 ENE 5 6 1014.3 - 0.0 - - - - - - -
26/05:30am 22.4 ESE 7 8 1014.1 - 0.0 - - - - - - -
26/05:00am 22.2 E 7 8 1013.6 - 0.0 - - - - - - -
26/04:30am 22.5 E 7 9 1013.3 - 0.0 - - - - - - -
26/04:00am 21.8 E 8 9 1013.2 - 0.0 - - - - - - -
26/03:30am 22.3 E 7 8 1013.1 - 0.0 - - - - - - -
26/03:00am 22.8 E 7 8 1013.0 - 0.0 - - - - - - -
26/02:30am 22.8 E 7 8 1013.0 - 0.0 - - - - - - -
26/02:00am 22.0 ENE 7 8 1013.2 - 0.0 - - - - - - -
26/01:30am 18.7 E 6 7 1013.3 - 0.0 - - - - - - -
26/01:00am 17.6 E 7 7 1013.5 - 0.0 - - - - - - -
26/12:30am 18.0 ENE 6 7 1013.7 - 0.0 - - - - - - -
26/12:00am 17.7 ENE 5 6 1013.8 - 0.0 - - - - - - -
 
Date/Time
WST
Temp
°C
Wind Pressure Rain since
9am
mm
Weather Cloud Vis
km
Sea
Height
m
Swell
Dir  Spd
kts
Gust
kts
hPa Trend Height
m
Period
s
Dir
25/11:30pm 18.4 CALM 0 0 1014.0 - 0.0 - - - - - - -
25/11:00pm 22.6 ENE 2 4 1014.0 - 0.0 - - - - - - -
25/10:30pm 19.3 CALM 0 0 1014.1 - 0.0 - - - - - - -
25/10:00pm 19.3 CALM 0 0 1014.2 - 0.0 - - - - - - -
25/09:30pm 20.3 CALM 0 0 1014.2 - 0.0 - - - - - - -
25/09:00pm 21.2 NW 2 3 1014.3 - 0.0 - - - - - - -
25/08:30pm 22.4 CALM 0 0 1014.2 - 0.0 - - - - - - -
25/08:00pm 23.6 ENE 6 7 1013.9 - 0.0 - - - - - - -
25/07:30pm 25.2 E 6 7 1013.8 - 0.0 - - - - - - -
25/07:00pm 25.6 E 7 7 1013.6 - 0.0 - - - - - - -
25/06:30pm 26.0 ESE 6 7 1013.2 - 0.0 - - - - - - -
25/06:00pm 26.8 ESE 6 8 1012.9 - 0.0 - - - - - - -
25/05:30pm 29.2 SSE 7 9 1012.5 - 0.0 - - - - - - -
25/05:00pm 31.1 SE 8 11 1012.3 - 0.0 - - - - - - -
25/04:30pm 32.5 SE 10 14 1011.9 - 0.0 - - - - - - -
25/04:00pm 33.2 SE 8 12 1011.7 - 0.0 - - - - - - -
25/03:30pm 33.7 SE 6 12 1011.7 - 0.0 - - - - - - -
25/03:00pm 33.9 ESE 7 12 1011.7 - 0.0 - - - - - - -
25/02:30pm 33.9 ENE 9 14 1011.9 - 0.0 - - - - - - -
25/02:00pm 33.9 ESE 8 13 1012.2 - 0.0 - - - - - - -
25/01:30pm 34.2 E 8 15 1012.3 - 0.0 - - - - - - -
25/01:00pm 33.5 E 9 14 1012.6 - 0.0 - - - - - - -
25/12:30pm 33.4 E 9 15 1013.2 - 0.0 - - - - - - -
25/12:00pm 33.4 ESE 11 17 1013.8 - 0.0 - - - - - - -
25/11:30am 32.8 E 11 17 1014.4 - 0.0 - - - - - - -
25/11:00am 32.3 E 13 19 1014.9 - 0.0 - - - - - - -
25/10:30am 32.0 ESE 14 18 1015.4 - 0.0 - - - - - - -
25/10:00am 31.0 ESE 13 19 1015.7 - 0.0 - - - - - - -
25/09:30am 30.1 ESE 14 18 1016.0 - 0.0 - - - - - - -
25/09:00am 29.2 SE 10 14 1016.0 - 0.0 - - - - - - -
25/08:30am 27.6 ESE 12 16 1016.2 - 0.0 - - - - - - -
25/08:00am 26.9 SE 9 12 1016.1 - 0.0 - - - - - - -
25/07:30am 25.6 SE 9 11 1016.1 - 0.0 - - - - - - -
25/07:00am 23.8 ESE 8 10 1015.9 - 0.0 - - - - - - -
25/06:30am 21.1 ESE 6 8 1015.7 - 0.0 - - - - - - -
25/06:00am 18.3 E 5 5 1015.4 - 0.0 - - - - - - -
25/05:30am 18.9 E 6 7 1015.1 - 0.0 - - - - - - -
25/05:00am 20.0 ESE 5 6 1014.9 - 0.0 - - - - - - -
25/04:30am 20.1 ESE 6 8 1014.6 - 0.0 - - - - - - -
25/04:00am 18.7 ESE 3 5 1014.5 - 0.0 - - - - - - -
25/03:30am 21.0 ESE 6 9 1014.4 - 0.0 - - - - - - -
25/03:00am 19.3 E 6 7 1014.4 - 0.0 - - - - - - -

Other Formats:

Comma delimited format used in spreadsheet applications
http://www.bom.gov.au/fwo/IDW60701/IDW60701.95214.axf

JavaScript Object Notation format (JSON) in row-major order
http://www.bom.gov.au/fwo/IDW60701/IDW60701.95214.json